Buoy 41575

sailwx.info

Track history (hours):
 
Tides and Currents Weather Stations Pressure Air Temp Water Temp Dewpoint Dewpoint Depression Visibility Wind Speed Wind Dir Waves Ship Positions

Drifting buoy 41575

Last reported at 2018-Jul-18 02:45 UTC. Time now 2018-Jul-18 10:17 UTC.
Position N 30°11' W 074°47'.

Date/timePositionNaut miles runAvg speedWind from/ knotsBaromVisibWave heightAir tempDewpointWater temp
2018-Jul-18 02:45N 30°11' W 074°47'0 0.0
2018-Jul-18 01:45N 30°11' W 074°47'1 1.0
2018-Jul-18 01:09N 30°12' W 074°47'1 7.9
2018-Jul-18 01:03N 30°13' W 074°46'1 0.6
2018-Jul-18 00:04N 30°13' W 074°46'0 0.0
2018-Jul-18 00:02N 30°13' W 074°46'1 1.2
2018-Jul-17 23:01N 30°14' W 074°46'0 0.0
2018-Jul-17 22:55N 30°14' W 074°46'3 1.0
2018-Jul-17 19:51N 30°17' W 074°46'0 0.0
2018-Jul-17 19:48N 30°17' W 074°46'5 1.0
2018-Jul-17 14:13N 30°23' W 074°46'0 0.0
2018-Jul-17 13:52N 30°23' W 074°46'1 1.3
2018-Jul-17 12:53N 30°24' W 074°45'0 0.0
2018-Jul-17 12:51N 30°24' W 074°45'1 0.7
2018-Jul-17 11:12N 30°25' W 074°45'1 0.6
2018-Jul-17 10:07N 30°26' W 074°45'1 7.8
2018-Jul-17 10:03N 30°26' W 074°44'111.9
2018-Jul-17 09:59N 30°26' W 074°45'1 0.6
2018-Jul-17 08:58N 30°27' W 074°45'3 0.6
2018-Jul-17 03:50N 30°30' W 074°45'112.0
2018-Jul-17 03:47N 30°31' W 074°45'1 0.7
2018-Jul-17 02:03N 30°32' W 074°45'0 0.0
2018-Jul-17 01:56N 30°32' W 074°45'0 0.0
2018-Jul-17 01:53N 30°32' W 074°45'1 1.5
2018-Jul-17 01:06N 30°33' W 074°45'2 1.9
2018-Jul-17 00:06N 30°35' W 074°44'1 0.7
2018-Jul-16 22:53N 30°35' W 074°45'2 1.8
2018-Jul-16 21:50N 30°37' W 074°46'2 1.0
2018-Jul-16 20:01N 30°39' W 074°45'0 0.0
2018-Jul-16 19:58N 30°39' W 074°45'554.2
2018-Jul-16 19:52N 30°44' W 074°46'1 0.3
2018-Jul-16 15:55N 30°46' W 074°46'110.3
2018-Jul-16 15:49N 30°46' W 074°44'126.1
2018-Jul-16 15:46N 30°47' W 074°45'0 0.0
2018-Jul-16 14:58N 30°47' W 074°45'1 5.1
2018-Jul-16 14:51N 30°47' W 074°45'3 3.8
2018-Jul-16 14:10N 30°50' W 074°46'0 0.0
2018-Jul-16 13:17N 30°50' W 074°46'1 2.0
2018-Jul-16 12:53N 30°50' W 074°46'2 1.5 0.123.6
2018-Jul-16 11:15N 30°53' W 074°46'0 0.0
2018-Jul-16 11:11N 30°53' W 074°46'1 6.2
2018-Jul-16 11:06N 30°53' W 074°46'2 2.6
2018-Jul-16 10:10N 30°55' W 074°46'9 1.1
2018-Jul-16 02:04N 31°04' W 074°49'1 3.4
2018-Jul-16 01:50N 31°04' W 074°50'1 1.3
2018-Jul-16 00:54N 31°05' W 074°50'147.4
2018-Jul-16 00:53N 31°06' W 074°50'123.7
2018-Jul-16 00:51N 31°05' W 074°50'1 1.5
2018-Jul-16 00:02N 31°07' W 074°50'1 6.2
2018-Jul-15 23:57N 31°07' W 074°50'1 1.1
2018-Jul-15 22:45N 31°08' W 074°51'2 1.9
2018-Jul-15 21:54N 31°09' W 074°52'0 0.0
2018-Jul-15 21:51N 31°09' W 074°52'7 3.8
2018-Jul-15 20:02N 31°15' W 074°56'1 0.3
2018-Jul-15 16:08N 31°16' W 074°58'0 0.0
2018-Jul-15 15:19N 31°16' W 074°58'1 1.1
2018-Jul-15 14:47N 31°16' W 074°58'2 1.2
2018-Jul-15 13:04N 31°18' W 074°59'220.3
2018-Jul-15 12:57N 31°20' W 075°01'0 0.0
2018-Jul-15 12:06N 31°20' W 075°01'0 0.0
2018-Jul-15 12:01N 31°20' W 075°01'1 2.0
2018-Jul-15 11:21N 31°21' W 075°00'2 1.2
2018-Jul-15 10:01N 31°22' W 075°02'223.4
2018-Jul-15 09:56N 31°23' W 075°04'0 0.0
2018-Jul-15 08:52N 31°23' W 075°04'6 1.1
2018-Jul-15 02:55N 31°26' W 075°10'0 0.0
2018-Jul-15 02:49N 31°26' W 075°10'1 1.4
2018-Jul-15 02:15N 31°27' W 075°10'0 0.0
2018-Jul-15 02:14N 31°27' W 075°10'0 0.0
2018-Jul-15 02:09N 31°27' W 075°10'117.8
2018-Jul-15 02:05N 31°28' W 075°11'0 0.0
2018-Jul-15 01:06N 31°28' W 075°11'2 0.9
2018-Jul-14 22:58N 31°29' W 075°13'110.2
2018-Jul-14 22:55N 31°29' W 075°14'0 0.0 25.3
2018-Jul-14 22:52N 31°29' W 075°14'115.4
2018-Jul-14 22:50N 31°29' W 075°13'0 0.0 200 / 31014.9 27.723.729.6
2018-Jul-14 22:47N 31°29' W 075°13'1 1.1 1.0 23.2
2018-Jul-14 22:05N 31°29' W 075°14'0 0.0
2018-Jul-14 22:02N 31°29' W 075°14'230.7
2018-Jul-14 21:59N 31°29' W 075°16'3 0.4
2018-Jul-14 14:58N 31°31' W 075°18'0 0.0
2018-Jul-14 14:55N 31°31' W 075°18'0 0.0
2018-Jul-14 14:54N 31°31' W 075°18'1 6.0
2018-Jul-14 14:48N 31°32' W 075°18'0 0.0
2018-Jul-14 13:57N 31°32' W 075°18'0 0.0
2018-Jul-14 13:51N 31°32' W 075°18'1 0.9
2018-Jul-14 13:16N 31°32' W 075°19'1 3.8
2018-Jul-14 13:08N 31°32' W 075°19'1 0.8
2018-Jul-14 12:11N 31°32' W 075°20'0 0.0
2018-Jul-14 12:10N 31°32' W 075°20'0 0.0
2018-Jul-14 10:49N 31°32' W 075°20'0 0.0
2018-Jul-14 09:03N 31°32' W 075°20'0 0.0
2018-Jul-14 09:00N 31°32' W 075°20'110.2
2018-Jul-14 08:57N 31°32' W 075°20'228.1
2018-Jul-14 08:53N 31°31' W 075°21'1 0.1
2018-Jul-14 01:01N 31°31' W 075°20'0 0.0
2018-Jul-14 00:53N 31°31' W 075°20'0 0.0
2018-Jul-14 00:52N 31°31' W 075°20'1 6.1
2018-Jul-14 00:47N 31°31' W 075°20'0 0.0
2018-Jul-14 00:46N 31°31' W 075°20'1 1.1
2018-Jul-13 23:52N 31°31' W 075°21'0 0.0
2018-Jul-13 23:26N 31°31' W 075°21'2 5.3
2018-Jul-13 23:02N 31°31' W 075°19'1 0.7
2018-Jul-13 22:12N 31°31' W 075°19'3 0.9
2018-Jul-13 18:55N 31°34' W 075°18'111.9
2018-Jul-13 18:49N 31°34' W 075°19'1 0.3
2018-Jul-13 15:59N 31°35' W 075°20'0 0.0
2018-Jul-13 15:56N 31°35' W 075°20'1 0.7
2018-Jul-13 15:15N 31°35' W 075°19'112.3
2018-Jul-13 15:10N 31°35' W 075°18'0 0.0
2018-Jul-13 15:07N 31°35' W 075°18'0 0.0
2018-Jul-13 15:01N 31°35' W 075°18'0 0.0
2018-Jul-13 14:16N 31°35' W 075°18'232.9
2018-Jul-13 14:13N 31°35' W 075°16'2 1.2
2018-Jul-13 12:53N 31°36' W 075°18'1 0.7
2018-Jul-13 11:46N 31°37' W 075°17'1 1.0
2018-Jul-13 11:14N 31°37' W 075°18'0 0.0
2018-Jul-13 11:08N 31°37' W 075°18'0 0.0
2018-Jul-13 11:03N 31°37' W 075°18'1 3.0
2018-Jul-13 10:51N 31°37' W 075°18'1 6.0
2018-Jul-13 10:45N 31°38' W 075°18'0 0.0
2018-Jul-13 09:13N 31°38' W 075°18'0 0.0
2018-Jul-13 09:10N 31°38' W 075°18'235.5
2018-Jul-13 09:06N 31°40' W 075°16'0 0.0
2018-Jul-13 02:55N 31°40' W 075°16'1 7.9
2018-Jul-13 02:49N 31°40' W 075°16'0 0.0
2018-Jul-13 01:53N 31°40' W 075°16'0 0.0
2018-Jul-13 01:49N 31°40' W 075°16'1 1.1
2018-Jul-13 01:07N 31°41' W 075°15'0 0.0
2018-Jul-13 01:04N 31°41' W 075°15'0 0.0
2018-Jul-13 00:56N 31°41' W 075°15'1 0.5
2018-Jul-12 23:51N 31°41' W 075°14'1 1.3
2018-Jul-12 23:14N 31°41' W 075°14'0 0.0
2018-Jul-12 22:55N 31°41' W 075°14'2 1.3
2018-Jul-12 21:08N 31°43' W 075°11'0 0.0
2018-Jul-12 20:47N 31°43' W 075°11'0 0.0
2018-Jul-12 20:43N 31°43' W 075°11'2 1.2
2018-Jul-12 19:06N 31°44' W 075°11'439.1
2018-Jul-12 19:00N 31°48' W 075°09'4 0.8
2018-Jul-12 13:53N 31°52' W 075°08'3 3.2
2018-Jul-12 12:57N 31°55' W 075°08'0 0.0
2018-Jul-12 11:56N 31°55' W 075°08'0 0.0
2018-Jul-12 11:53N 31°55' W 075°08'0 0.0
2018-Jul-12 11:50N 31°55' W 075°08'1 2.0
2018-Jul-12 11:32N 31°56' W 075°08'0 0.0
2018-Jul-12 11:04N 31°56' W 075°08'112.0
2018-Jul-12 10:58N 31°57' W 075°08'0 0.0
2018-Jul-12 10:00N 31°57' W 075°08'0 0.0
2018-Jul-12 09:57N 31°57' W 075°08'1 7.9
2018-Jul-12 09:51N 31°58' W 075°09'4 0.7
2018-Jul-12 03:10N 32°02' W 075°07'1 0.6
2018-Jul-12 02:07N 32°02' W 075°07'0 0.0
2018-Jul-12 01:35N 32°02' W 075°07'0 0.0
2018-Jul-12 01:28N 32°02' W 075°07'0 0.0
2018-Jul-12 01:10N 32°02' W 075°07'1 2.1
2018-Jul-12 00:53N 32°03' W 075°07'1 0.9
2018-Jul-11 23:30N 32°04' W 075°07'0 0.0
2018-Jul-11 23:13N 32°04' W 075°07'1 1.4
2018-Jul-11 22:48N 32°05' W 075°07'2 1.3
2018-Jul-11 20:59N 32°07' W 075°07'0 0.0
2018-Jul-11 20:55N 32°07' W 075°07'218.0
2018-Jul-11 20:49N 32°09' W 075°07'4 2.6
2018-Jul-11 19:11N 32°13' W 075°08'1 0.4
2018-Jul-11 15:58N 32°14' W 075°10'1 7.6
2018-Jul-11 15:54N 32°14' W 075°09'119.5
2018-Jul-11 15:50N 32°15' W 075°10'0 0.0
2018-Jul-11 15:00N 32°15' W 075°10'0 0.0
2018-Jul-11 14:57N 32°15' W 075°10'2 2.6
2018-Jul-11 14:10N 32°17' W 075°11'0 0.0
2018-Jul-11 13:54N 32°17' W 075°11'0 0.0
2018-Jul-11 13:51N 32°17' W 075°11'0 0.0
2018-Jul-11 13:45N 32°17' W 075°11'110.1
2018-Jul-11 13:42N 32°17' W 075°11'0 0.0
2018-Jul-11 13:16N 32°17' W 075°11'2 1.5
2018-Jul-11 12:11N 32°18' W 075°13'130.4
2018-Jul-11 12:10N 32°18' W 075°12'0 0.0
2018-Jul-11 12:08N 32°18' W 075°12'123.6
2018-Jul-11 12:05N 32°19' W 075°13'0 0.0
2018-Jul-11 12:02N 32°19' W 075°13'1 0.9
2018-Jul-11 11:10N 32°19' W 075°14'1 1.0
2018-Jul-11 10:21N 32°20' W 075°14'0 0.0
2018-Jul-11 10:18N 32°20' W 075°14'1 0.8
2018-Jul-11 09:32N 32°19' W 075°14'1 7.2
2018-Jul-11 09:27N 32°20' W 075°14'0 0.0
2018-Jul-11 08:49N 32°20' W 075°14'2 2.4
2018-Jul-11 07:49N 32°22' W 075°16'1 0.1
2018-Jul-11 01:52N 32°22' W 075°17'110.1
2018-Jul-11 01:49N 32°22' W 075°16'0 0.0
2018-Jul-11 01:21N 32°22' W 075°16'1 1.6
2018-Jul-11 00:59N 32°23' W 075°16'0 0.0
2018-Jul-11 00:54N 32°23' W 075°16'0 0.0
2018-Jul-11 00:51N 32°23' W 075°16'172.0
2018-Jul-11 00:50N 32°24' W 075°16'0 0.0
2018-Jul-10 23:45N 32°24' W 075°16'1 1.2
2018-Jul-10 23:19N 32°24' W 075°17'1 5.1
2018-Jul-10 23:13N 32°24' W 075°16'1 2.7
2018-Jul-10 22:46N 32°25' W 075°16'1 0.4
2018-Jul-10 21:11N 32°26' W 075°16'1 7.2
2018-Jul-10 21:06N 32°26' W 075°16'5 3.1
2018-Jul-10 19:22N 32°32' W 075°16'0 0.0
2018-Jul-10 15:21N 32°32' W 075°16'231.4
2018-Jul-10 15:18N 32°33' W 075°17'1 1.1
2018-Jul-10 14:04N 32°34' W 075°17'0 0.0
2018-Jul-10 14:01N 32°34' W 075°17'112.0
2018-Jul-10 13:58N 32°34' W 075°17'111.8
2018-Jul-10 13:54N 32°34' W 075°17'1 0.9
2018-Jul-10 12:28N 32°35' W 075°18'0 0.0
2018-Jul-10 12:22N 32°35' W 075°18'213.5
2018-Jul-10 12:14N 32°37' W 075°18'1 0.5
2018-Jul-10 11:02N 32°37' W 075°18'0 0.0
2018-Jul-10 10:57N 32°37' W 075°18'1 4.7
2018-Jul-10 10:47N 32°37' W 075°19'1 0.8
2018-Jul-10 09:49N 32°38' W 075°18'0 0.0
2018-Jul-10 09:45N 32°38' W 075°18'1 1.6
2018-Jul-10 09:22N 32°38' W 075°18'1 0.5
2018-Jul-10 08:04N 32°39' W 075°18'5108.2
2018-Jul-10 08:01N 32°43' W 075°13'1 0.2
2018-Jul-10 02:52N 32°43' W 075°12'1 1.2
2018-Jul-10 02:12N 32°44' W 075°11'0 0.0
2018-Jul-10 02:09N 32°44' W 075°11'3 4.0
2018-Jul-10 01:23N 32°46' W 075°08'354.1
2018-Jul-10 01:20N 32°44' W 075°11'0 0.0
2018-Jul-10 01:17N 32°44' W 075°11'327.0
2018-Jul-10 01:11N 32°46' W 075°08'0 0.0
2018-Jul-09 23:58N 32°46' W 075°08'0 0.0
2018-Jul-09 23:49N 32°46' W 075°08'0 0.0
2018-Jul-09 23:46N 32°46' W 075°08'2 1.8
2018-Jul-09 22:29N 32°47' W 075°06'1 1.7
2018-Jul-09 22:08N 32°47' W 075°06'0 0.0
2018-Jul-09 22:05N 32°47' W 075°06'1 1.7
2018-Jul-09 21:23N 32°48' W 075°05'1 6.1
2018-Jul-09 21:18N 32°48' W 075°05'8 1.3
2018-Jul-09 15:01N 32°52' W 074°56'0 0.0
2018-Jul-09 14:58N 32°52' W 074°56'1 4.3
2018-Jul-09 14:51N 32°52' W 074°56'0 0.0
2018-Jul-09 14:06N 32°52' W 074°56'0 0.0
2018-Jul-09 14:01N 32°52' W 074°56'215.1
2018-Jul-09 13:53N 32°52' W 074°53'0 0.0
2018-Jul-09 12:53N 32°52' W 074°53'2 1.5
2018-Jul-09 11:33N 32°52' W 074°51'0 0.0
2018-Jul-09 11:30N 32°52' W 074°51'0 0.0
2018-Jul-09 11:27N 32°52' W 074°51'110.1
2018-Jul-09 11:24N 32°52' W 074°50'0 0.0
2018-Jul-09 11:11N 32°52' W 074°50'2 1.7
2018-Jul-09 10:01N 32°52' W 074°48'0 0.0
2018-Jul-09 09:57N 32°52' W 074°48'0 0.0
2018-Jul-09 09:54N 32°52' W 074°48'0 0.0
2018-Jul-09 09:51N 32°52' W 074°48'0 0.0
2018-Jul-09 09:48N 32°52' W 074°48'4 2.3
2018-Jul-09 08:17N 32°52' W 074°44'11158.8
2018-Jul-09 08:13N 32°52' W 074°31'2 0.3
2018-Jul-09 03:11N 32°52' W 074°29'2 1.1
2018-Jul-09 01:50N 32°52' W 074°28'0 0.0
2018-Jul-09 01:45N 32°52' W 074°28'2 8.4
2018-Jul-09 01:30N 32°51' W 074°25'0 0.0
2018-Jul-09 00:57N 32°51' W 074°25'1 8.8
2018-Jul-09 00:49N 32°52' W 074°24'1 1.2
2018-Jul-09 00:18N 32°52' W 074°24'0 0.0
2018-Jul-09 00:09N 32°52' W 074°24'213.4
2018-Jul-09 00:00N 32°52' W 074°22'240.3
2018-Jul-08 23:57N 32°52' W 074°24'2 2.0
2018-Jul-08 22:55N 32°52' W 074°22'4 1.2
2018-Jul-08 19:52N 32°53' W 074°17'1 9.0
2018-Jul-08 19:48N 32°52' W 074°17'355.8
2018-Jul-08 19:45N 32°51' W 074°14'1 0.1
2018-Jul-08 16:02N 32°51' W 074°14'0 0.0
2018-Jul-08 15:59N 32°51' W 074°14'0 0.0
2018-Jul-08 15:21N 32°51' W 074°14'147.0
2018-Jul-08 15:20N 32°50' W 074°14'0 0.0
2018-Jul-08 14:18N 32°50' W 074°14'0 0.0
2018-Jul-08 14:16N 32°50' W 074°14'1 0.4
2018-Jul-08 12:04N 32°50' W 074°14'1 0.5
2018-Jul-08 10:20N 32°49' W 074°14'0 0.0
2018-Jul-08 10:12N 32°49' W 074°14'0 0.0
2018-Jul-08 10:09N 32°49' W 074°14'1 6.0
2018-Jul-08 10:03N 32°50' W 074°14'2 0.2
2018-Jul-08 02:53N 32°49' W 074°16'  
Track history (hours):
 
Tides and Currents Weather Stations Pressure Air Temp Water Temp Dewpoint Dewpoint Depression Visibility Wind Speed Wind Dir Waves Ship Positions

Drifting buoy 41575

Last reported at 2018-Jul-18 02:45 UTC. Time now 2018-Jul-18 10:18 UTC.
Position N 30°11' W 074°47'.

Date/timePositionNaut miles runAvg speedWind from/ knotsBaromVisibWave heightAir tempDewpointWater temp
2018-Jul-18 02:45N 30°11' W 074°47'0 0.0
2018-Jul-18 01:45N 30°11' W 074°47'1 1.0
2018-Jul-18 01:09N 30°12' W 074°47'1 7.9
2018-Jul-18 01:03N 30°13' W 074°46'1 0.6
2018-Jul-18 00:04N 30°13' W 074°46'0 0.0
2018-Jul-18 00:02N 30°13' W 074°46'1 1.2
2018-Jul-17 23:01N 30°14' W 074°46'0 0.0
2018-Jul-17 22:55N 30°14' W 074°46'3 1.0
2018-Jul-17 19:51N 30°17' W 074°46'0 0.0
2018-Jul-17 19:48N 30°17' W 074°46'5 1.0
2018-Jul-17 14:13N 30°23' W 074°46'0 0.0
2018-Jul-17 13:52N 30°23' W 074°46'1 1.3
2018-Jul-17 12:53N 30°24' W 074°45'0 0.0
2018-Jul-17 12:51N 30°24' W 074°45'1 0.7
2018-Jul-17 11:12N 30°25' W 074°45'1 0.6
2018-Jul-17 10:07N 30°26' W 074°45'1 7.8
2018-Jul-17 10:03N 30°26' W 074°44'111.9
2018-Jul-17 09:59N 30°26' W 074°45'1 0.6
2018-Jul-17 08:58N 30°27' W 074°45'3 0.6
2018-Jul-17 03:50N 30°30' W 074°45'112.0
2018-Jul-17 03:47N 30°31' W 074°45'1 0.7
2018-Jul-17 02:03N 30°32' W 074°45'0 0.0
2018-Jul-17 01:56N 30°32' W 074°45'0 0.0
2018-Jul-17 01:53N 30°32' W 074°45'1 1.5
2018-Jul-17 01:06N 30°33' W 074°45'2 1.9
2018-Jul-17 00:06N 30°35' W 074°44'1 0.7
2018-Jul-16 22:53N 30°35' W 074°45'2 1.8
2018-Jul-16 21:50N 30°37' W 074°46'2 1.0
2018-Jul-16 20:01N 30°39' W 074°45'0 0.0
2018-Jul-16 19:58N 30°39' W 074°45'554.2
2018-Jul-16 19:52N 30°44' W 074°46'1 0.3
2018-Jul-16 15:55N 30°46' W 074°46'110.3
2018-Jul-16 15:49N 30°46' W 074°44'126.1
2018-Jul-16 15:46N 30°47' W 074°45'0 0.0
2018-Jul-16 14:58N 30°47' W 074°45'1 5.1
2018-Jul-16 14:51N 30°47' W 074°45'3 3.8
2018-Jul-16 14:10N 30°50' W 074°46'0 0.0
2018-Jul-16 13:17N 30°50' W 074°46'1 2.0
2018-Jul-16 12:53N 30°50' W 074°46'2 1.5 0.123.6
2018-Jul-16 11:15N 30°53' W 074°46'0 0.0
2018-Jul-16 11:11N 30°53' W 074°46'1 6.2
2018-Jul-16 11:06N 30°53' W 074°46'2 2.6
2018-Jul-16 10:10N 30°55' W 074°46'9 1.1
2018-Jul-16 02:04N 31°04' W 074°49'1 3.4
2018-Jul-16 01:50N 31°04' W 074°50'1 1.3
2018-Jul-16 00:54N 31°05' W 074°50'147.4
2018-Jul-16 00:53N 31°06' W 074°50'123.7
2018-Jul-16 00:51N 31°05' W 074°50'1 1.5
2018-Jul-16 00:02N 31°07' W 074°50'1 6.2
2018-Jul-15 23:57N 31°07' W 074°50'1 1.1
2018-Jul-15 22:45N 31°08' W 074°51'2 1.9
2018-Jul-15 21:54N 31°09' W 074°52'0 0.0
2018-Jul-15 21:51N 31°09' W 074°52'7 3.8
2018-Jul-15 20:02N 31°15' W 074°56'1 0.3
2018-Jul-15 16:08N 31°16' W 074°58'0 0.0
2018-Jul-15 15:19N 31°16' W 074°58'1 1.1
2018-Jul-15 14:47N 31°16' W 074°58'2 1.2
2018-Jul-15 13:04N 31°18' W 074°59'220.3
2018-Jul-15 12:57N 31°20' W 075°01'0 0.0
2018-Jul-15 12:06N 31°20' W 075°01'0 0.0
2018-Jul-15 12:01N 31°20' W 075°01'1 2.0
2018-Jul-15 11:21N 31°21' W 075°00'2 1.2
2018-Jul-15 10:01N 31°22' W 075°02'223.4
2018-Jul-15 09:56N 31°23' W 075°04'0 0.0
2018-Jul-15 08:52N 31°23' W 075°04'6 1.1
2018-Jul-15 02:55N 31°26' W 075°10'0 0.0
2018-Jul-15 02:49N 31°26' W 075°10'1 1.4
2018-Jul-15 02:15N 31°27' W 075°10'0 0.0
2018-Jul-15 02:14N 31°27' W 075°10'0 0.0
2018-Jul-15 02:09N 31°27' W 075°10'117.8
2018-Jul-15 02:05N 31°28' W 075°11'0 0.0
2018-Jul-15 01:06N 31°28' W 075°11'2 0.9
2018-Jul-14 22:58N 31°29' W 075°13'110.2
2018-Jul-14 22:55N 31°29' W 075°14'0 0.0 25.3
2018-Jul-14 22:52N 31°29' W 075°14'115.4
2018-Jul-14 22:50N 31°29' W 075°13'0 0.0 200 / 31014.9 27.723.729.6
2018-Jul-14 22:47N 31°29' W 075°13'1 1.1 1.0 23.2
2018-Jul-14 22:05N 31°29' W 075°14'0 0.0
2018-Jul-14 22:02N 31°29' W 075°14'230.7
2018-Jul-14 21:59N 31°29' W 075°16'3 0.4
2018-Jul-14 14:58N 31°31' W 075°18'0 0.0
2018-Jul-14 14:55N 31°31' W 075°18'0 0.0
2018-Jul-14 14:54N 31°31' W 075°18'1 6.0
2018-Jul-14 14:48N 31°32' W 075°18'0 0.0
2018-Jul-14 13:57N 31°32' W 075°18'0 0.0
2018-Jul-14 13:51N 31°32' W 075°18'1 0.9
2018-Jul-14 13:16N 31°32' W 075°19'1 3.8
2018-Jul-14 13:08N 31°32' W 075°19'1 0.8
2018-Jul-14 12:11N 31°32' W 075°20'0 0.0
2018-Jul-14 12:10N 31°32' W 075°20'0 0.0
2018-Jul-14 10:49N 31°32' W 075°20'0 0.0
2018-Jul-14 09:03N 31°32' W 075°20'0 0.0
2018-Jul-14 09:00N 31°32' W 075°20'110.2
2018-Jul-14 08:57N 31°32' W 075°20'228.1
2018-Jul-14 08:53N 31°31' W 075°21'1 0.1
2018-Jul-14 01:01N 31°31' W 075°20'0 0.0
2018-Jul-14 00:53N 31°31' W 075°20'0 0.0
2018-Jul-14 00:52N 31°31' W 075°20'1 6.1
2018-Jul-14 00:47N 31°31' W 075°20'0 0.0
2018-Jul-14 00:46N 31°31' W 075°20'1 1.1
2018-Jul-13 23:52N 31°31' W 075°21'0 0.0
2018-Jul-13 23:26N 31°31' W 075°21'2 5.3
2018-Jul-13 23:02N 31°31' W 075°19'1 0.7
2018-Jul-13 22:12N 31°31' W 075°19'3 0.9
2018-Jul-13 18:55N 31°34' W 075°18'111.9
2018-Jul-13 18:49N 31°34' W 075°19'1 0.3
2018-Jul-13 15:59N 31°35' W 075°20'0 0.0
2018-Jul-13 15:56N 31°35' W 075°20'1 0.7
2018-Jul-13 15:15N 31°35' W 075°19'112.3
2018-Jul-13 15:10N 31°35' W 075°18'0 0.0
2018-Jul-13 15:07N 31°35' W 075°18'0 0.0
2018-Jul-13 15:01N 31°35' W 075°18'0 0.0
2018-Jul-13 14:16N 31°35' W 075°18'232.9
2018-Jul-13 14:13N 31°35' W 075°16'2 1.2
2018-Jul-13 12:53N 31°36' W 075°18'1 0.7
2018-Jul-13 11:46N 31°37' W 075°17'1 1.0
2018-Jul-13 11:14N 31°37' W 075°18'0 0.0
2018-Jul-13 11:08N 31°37' W 075°18'0 0.0
2018-Jul-13 11:03N 31°37' W 075°18'1 3.0
2018-Jul-13 10:51N 31°37' W 075°18'1 6.0
2018-Jul-13 10:45N 31°38' W 075°18'0 0.0
2018-Jul-13 09:13N 31°38' W 075°18'0 0.0
2018-Jul-13 09:10N 31°38' W 075°18'235.5
2018-Jul-13 09:06N 31°40' W 075°16'0 0.0
2018-Jul-13 02:55N 31°40' W 075°16'1 7.9
2018-Jul-13 02:49N 31°40' W 075°16'0 0.0
2018-Jul-13 01:53N 31°40' W 075°16'0 0.0
2018-Jul-13 01:49N 31°40' W 075°16'1 1.1
2018-Jul-13 01:07N 31°41' W 075°15'0 0.0
2018-Jul-13 01:04N 31°41' W 075°15'0 0.0
2018-Jul-13 00:56N 31°41' W 075°15'1 0.5
2018-Jul-12 23:51N 31°41' W 075°14'1 1.3
2018-Jul-12 23:14N 31°41' W 075°14'0 0.0
2018-Jul-12 22:55N 31°41' W 075°14'2 1.3
2018-Jul-12 21:08N 31°43' W 075°11'0 0.0
2018-Jul-12 20:47N 31°43' W 075°11'0 0.0
2018-Jul-12 20:43N 31°43' W 075°11'2 1.2
2018-Jul-12 19:06N 31°44' W 075°11'439.1
2018-Jul-12 19:00N 31°48' W 075°09'4 0.8
2018-Jul-12 13:53N 31°52' W 075°08'3 3.2
2018-Jul-12 12:57N 31°55' W 075°08'0 0.0
2018-Jul-12 11:56N 31°55' W 075°08'0 0.0
2018-Jul-12 11:53N 31°55' W 075°08'0 0.0
2018-Jul-12 11:50N 31°55' W 075°08'1 2.0
2018-Jul-12 11:32N 31°56' W 075°08'0 0.0
2018-Jul-12 11:04N 31°56' W 075°08'112.0
2018-Jul-12 10:58N 31°57' W 075°08'0 0.0
2018-Jul-12 10:00N 31°57' W 075°08'0 0.0
2018-Jul-12 09:57N 31°57' W 075°08'1 7.9
2018-Jul-12 09:51N 31°58' W 075°09'4 0.7
2018-Jul-12 03:10N 32°02' W 075°07'1 0.6
2018-Jul-12 02:07N 32°02' W 075°07'0 0.0
2018-Jul-12 01:35N 32°02' W 075°07'0 0.0
2018-Jul-12 01:28N 32°02' W 075°07'0 0.0
2018-Jul-12 01:10N 32°02' W 075°07'1 2.1
2018-Jul-12 00:53N 32°03' W 075°07'1 0.9
2018-Jul-11 23:30N 32°04' W 075°07'0 0.0
2018-Jul-11 23:13N 32°04' W 075°07'1 1.4
2018-Jul-11 22:48N 32°05' W 075°07'2 1.3
2018-Jul-11 20:59N 32°07' W 075°07'0 0.0
2018-Jul-11 20:55N 32°07' W 075°07'218.0
2018-Jul-11 20:49N 32°09' W 075°07'4 2.6
2018-Jul-11 19:11N 32°13' W 075°08'1 0.4
2018-Jul-11 15:58N 32°14' W 075°10'1 7.6
2018-Jul-11 15:54N 32°14' W 075°09'119.5
2018-Jul-11 15:50N 32°15' W 075°10'0 0.0
2018-Jul-11 15:00N 32°15' W 075°10'0 0.0
2018-Jul-11 14:57N 32°15' W 075°10'2 2.6
2018-Jul-11 14:10N 32°17' W 075°11'0 0.0
2018-Jul-11 13:54N 32°17' W 075°11'0 0.0
2018-Jul-11 13:51N 32°17' W 075°11'0 0.0
2018-Jul-11 13:45N 32°17' W 075°11'110.1
2018-Jul-11 13:42N 32°17' W 075°11'0 0.0
2018-Jul-11 13:16N 32°17' W 075°11'2 1.5
2018-Jul-11 12:11N 32°18' W 075°13'130.4
2018-Jul-11 12:10N 32°18' W 075°12'0 0.0
2018-Jul-11 12:08N 32°18' W 075°12'123.6
2018-Jul-11 12:05N 32°19' W 075°13'0 0.0
2018-Jul-11 12:02N 32°19' W 075°13'1 0.9
2018-Jul-11 11:10N 32°19' W 075°14'1 1.0
2018-Jul-11 10:21N 32°20' W 075°14'0 0.0
2018-Jul-11 10:18N 32°20' W 075°14'1 0.8
2018-Jul-11 09:32N 32°19' W 075°14'1 7.2
2018-Jul-11 09:27N 32°20' W 075°14'0 0.0
2018-Jul-11 08:49N 32°20' W 075°14'2 2.4
2018-Jul-11 07:49N 32°22' W 075°16'1 0.1
2018-Jul-11 01:52N 32°22' W 075°17'110.1
2018-Jul-11 01:49N 32°22' W 075°16'0 0.0
2018-Jul-11 01:21N 32°22' W 075°16'1 1.6
2018-Jul-11 00:59N 32°23' W 075°16'0 0.0
2018-Jul-11 00:54N 32°23' W 075°16'0 0.0
2018-Jul-11 00:51N 32°23' W 075°16'172.0
2018-Jul-11 00:50N 32°24' W 075°16'0 0.0
2018-Jul-10 23:45N 32°24' W 075°16'1 1.2
2018-Jul-10 23:19N 32°24' W 075°17'1 5.1
2018-Jul-10 23:13N 32°24' W 075°16'1 2.7
2018-Jul-10 22:46N 32°25' W 075°16'1 0.4
2018-Jul-10 21:11N 32°26' W 075°16'1 7.2
2018-Jul-10 21:06N 32°26' W 075°16'5 3.1
2018-Jul-10 19:22N 32°32' W 075°16'0 0.0
2018-Jul-10 15:21N 32°32' W 075°16'231.4
2018-Jul-10 15:18N 32°33' W 075°17'1 1.1
2018-Jul-10 14:04N 32°34' W 075°17'0 0.0
2018-Jul-10 14:01N 32°34' W 075°17'112.0
2018-Jul-10 13:58N 32°34' W 075°17'111.8
2018-Jul-10 13:54N 32°34' W 075°17'1 0.9
2018-Jul-10 12:28N 32°35' W 075°18'0 0.0
2018-Jul-10 12:22N 32°35' W 075°18'213.5
2018-Jul-10 12:14N 32°37' W 075°18'1 0.5
2018-Jul-10 11:02N 32°37' W 075°18'0 0.0
2018-Jul-10 10:57N 32°37' W 075°18'1 4.7
2018-Jul-10 10:47N 32°37' W 075°19'1 0.8
2018-Jul-10 09:49N 32°38' W 075°18'0 0.0
2018-Jul-10 09:45N 32°38' W 075°18'1 1.6
2018-Jul-10 09:22N 32°38' W 075°18'1 0.5
2018-Jul-10 08:04N 32°39' W 075°18'5108.2
2018-Jul-10 08:01N 32°43' W 075°13'1 0.2
2018-Jul-10 02:52N 32°43' W 075°12'1 1.2
2018-Jul-10 02:12N 32°44' W 075°11'0 0.0
2018-Jul-10 02:09N 32°44' W 075°11'3 4.0
2018-Jul-10 01:23N 32°46' W 075°08'354.1
2018-Jul-10 01:20N 32°44' W 075°11'0 0.0
2018-Jul-10 01:17N 32°44' W 075°11'327.0
2018-Jul-10 01:11N 32°46' W 075°08'0 0.0
2018-Jul-09 23:58N 32°46' W 075°08'0 0.0
2018-Jul-09 23:49N 32°46' W 075°08'0 0.0
2018-Jul-09 23:46N 32°46' W 075°08'2 1.8
2018-Jul-09 22:29N 32°47' W 075°06'1 1.7
2018-Jul-09 22:08N 32°47' W 075°06'0 0.0
2018-Jul-09 22:05N 32°47' W 075°06'1 1.7
2018-Jul-09 21:23N 32°48' W 075°05'1 6.1
2018-Jul-09 21:18N 32°48' W 075°05'8 1.3
2018-Jul-09 15:01N 32°52' W 074°56'0 0.0
2018-Jul-09 14:58N 32°52' W 074°56'1 4.3
2018-Jul-09 14:51N 32°52' W 074°56'0 0.0
2018-Jul-09 14:06N 32°52' W 074°56'0 0.0
2018-Jul-09 14:01N 32°52' W 074°56'215.1
2018-Jul-09 13:53N 32°52' W 074°53'0 0.0
2018-Jul-09 12:53N 32°52' W 074°53'2 1.5
2018-Jul-09 11:33N 32°52' W 074°51'0 0.0
2018-Jul-09 11:30N 32°52' W 074°51'0 0.0
2018-Jul-09 11:27N 32°52' W 074°51'110.1
2018-Jul-09 11:24N 32°52' W 074°50'0 0.0
2018-Jul-09 11:11N 32°52' W 074°50'2 1.7
2018-Jul-09 10:01N 32°52' W 074°48'0 0.0
2018-Jul-09 09:57N 32°52' W 074°48'0 0.0
2018-Jul-09 09:54N 32°52' W 074°48'0 0.0
2018-Jul-09 09:51N 32°52' W 074°48'0 0.0
2018-Jul-09 09:48N 32°52' W 074°48'4 2.3
2018-Jul-09 08:17N 32°52' W 074°44'11158.8
2018-Jul-09 08:13N 32°52' W 074°31'2 0.3
2018-Jul-09 03:11N 32°52' W 074°29'2 1.1
2018-Jul-09 01:50N 32°52' W 074°28'0 0.0
2018-Jul-09 01:45N 32°52' W 074°28'2 8.4
2018-Jul-09 01:30N 32°51' W 074°25'0 0.0
2018-Jul-09 00:57N 32°51' W 074°25'1 8.8
2018-Jul-09 00:49N 32°52' W 074°24'1 1.2
2018-Jul-09 00:18N 32°52' W 074°24'0 0.0
2018-Jul-09 00:09N 32°52' W 074°24'213.4
2018-Jul-09 00:00N 32°52' W 074°22'240.3
2018-Jul-08 23:57N 32°52' W 074°24'2 2.0
2018-Jul-08 22:55N 32°52' W 074°22'4 1.2
2018-Jul-08 19:52N 32°53' W 074°17'1 9.0
2018-Jul-08 19:48N 32°52' W 074°17'355.8
2018-Jul-08 19:45N 32°51' W 074°14'1 0.1
2018-Jul-08 16:02N 32°51' W 074°14'0 0.0
2018-Jul-08 15:59N 32°51' W 074°14'0 0.0
2018-Jul-08 15:21N 32°51' W 074°14'147.0
2018-Jul-08 15:20N 32°50' W 074°14'0 0.0
2018-Jul-08 14:18N 32°50' W 074°14'0 0.0
2018-Jul-08 14:16N 32°50' W 074°14'1 0.4
2018-Jul-08 12:04N 32°50' W 074°14'1 0.5
2018-Jul-08 10:20N 32°49' W 074°14'0 0.0
2018-Jul-08 10:12N 32°49' W 074°14'0 0.0
2018-Jul-08 10:09N 32°49' W 074°14'1 6.0
2018-Jul-08 10:03N 32°50' W 074°14'2 0.2
2018-Jul-08 02:53N 32°49' W 074°16'  

Dump ship's entire track history